sensor_id;sensor_type;location;lat;lon;timestamp;temperature;humidity
32322;DHT22;61553;48.994;8.940;2022-08-19T00:01:51;19.80;99.90
32322;DHT22;61553;48.994;8.940;2022-08-19T00:04:19;19.80;99.90
32322;DHT22;61553;48.994;8.940;2022-08-19T00:06:46;19.80;99.90
32322;DHT22;61553;48.994;8.940;2022-08-19T00:09:14;19.90;99.90
32322;DHT22;61553;48.994;8.940;2022-08-19T00:11:41;19.90;99.90
32322;DHT22;61553;48.994;8.940;2022-08-19T00:14:09;20.00;99.90
32322;DHT22;61553;48.994;8.940;2022-08-19T00:16:36;20.00;99.90
32322;DHT22;61553;48.994;8.940;2022-08-19T00:19:03;20.10;99.90
32322;DHT22;61553;48.994;8.940;2022-08-19T00:21:29;20.00;99.90
32322;DHT22;61553;48.994;8.940;2022-08-19T00:23:56;20.10;99.90
32322;DHT22;61553;48.994;8.940;2022-08-19T00:26:26;20.10;99.90
32322;DHT22;61553;48.994;8.940;2022-08-19T00:28:52;20.10;99.90
32322;DHT22;61553;48.994;8.940;2022-08-19T00:31:17;20.00;99.90
32322;DHT22;61553;48.994;8.940;2022-08-19T00:33:43;20.10;99.90
32322;DHT22;61553;48.994;8.940;2022-08-19T00:36:12;20.00;99.90
32322;DHT22;61553;48.994;8.940;2022-08-19T00:38:39;20.10;99.90
32322;DHT22;61553;48.994;8.940;2022-08-19T00:41:13;20.00;99.90
32322;DHT22;61553;48.994;8.940;2022-08-19T00:43:40;20.00;99.90
32322;DHT22;61553;48.994;8.940;2022-08-19T00:46:07;20.00;99.90
32322;DHT22;61553;48.994;8.940;2022-08-19T00:48:33;20.00;99.90
32322;DHT22;61553;48.994;8.940;2022-08-19T00:51:00;19.90;99.90
32322;DHT22;61553;48.994;8.940;2022-08-19T00:53:28;19.90;99.90
32322;DHT22;61553;48.994;8.940;2022-08-19T00:55:58;19.90;99.90
32322;DHT22;61553;48.994;8.940;2022-08-19T00:58:30;19.80;99.90
32322;DHT22;61553;48.994;8.940;2022-08-19T01:00:57;19.80;99.90
32322;DHT22;61553;48.994;8.940;2022-08-19T01:03:24;19.80;99.90
32322;DHT22;61553;48.994;8.940;2022-08-19T01:05:50;19.80;99.90
32322;DHT22;61553;48.994;8.940;2022-08-19T01:08:18;19.80;99.90
32322;DHT22;61553;48.994;8.940;2022-08-19T01:10:50;19.80;99.90
32322;DHT22;61553;48.994;8.940;2022-08-19T01:13:21;19.90;99.90
32322;DHT22;61553;48.994;8.940;2022-08-19T01:15:52;19.90;99.90
32322;DHT22;61553;48.994;8.940;2022-08-19T01:18:20;20.00;99.90
32322;DHT22;61553;48.994;8.940;2022-08-19T01:20:47;19.90;99.90
32322;DHT22;61553;48.994;8.940;2022-08-19T01:23:14;20.00;99.90
32322;DHT22;61553;48.994;8.940;2022-08-19T01:25:49;19.90;99.90
32322;DHT22;61553;48.994;8.940;2022-08-19T01:28:19;19.90;99.90
32322;DHT22;61553;48.994;8.940;2022-08-19T01:30:45;19.80;99.90
32322;DHT22;61553;48.994;8.940;2022-08-19T01:33:12;19.80;99.90
32322;DHT22;61553;48.994;8.940;2022-08-19T01:35:37;19.70;99.90
32322;DHT22;61553;48.994;8.940;2022-08-19T01:38:06;19.80;99.90
32322;DHT22;61553;48.994;8.940;2022-08-19T01:40:34;19.70;99.90
32322;DHT22;61553;48.994;8.940;2022-08-19T01:43:00;19.70;99.90
32322;DHT22;61553;48.994;8.940;2022-08-19T01:45:28;19.70;99.90
32322;DHT22;61553;48.994;8.940;2022-08-19T01:47:55;19.70;99.90
32322;DHT22;61553;48.994;8.940;2022-08-19T01:50:21;19.70;99.90
32322;DHT22;61553;48.994;8.940;2022-08-19T01:52:47;19.70;99.90
32322;DHT22;61553;48.994;8.940;2022-08-19T01:55:16;19.70;99.90
32322;DHT22;61553;48.994;8.940;2022-08-19T01:57:46;19.70;99.90
32322;DHT22;61553;48.994;8.940;2022-08-19T02:00:14;19.70;99.90
32322;DHT22;61553;48.994;8.940;2022-08-19T02:02:41;19.70;99.90
32322;DHT22;61553;48.994;8.940;2022-08-19T02:05:08;19.70;99.90
32322;DHT22;61553;48.994;8.940;2022-08-19T02:07:35;19.70;99.90
32322;DHT22;61553;48.994;8.940;2022-08-19T02:10:07;19.70;99.90
32322;DHT22;61553;48.994;8.940;2022-08-19T02:12:33;19.60;99.90
32322;DHT22;61553;48.994;8.940;2022-08-19T02:14:59;19.60;99.90
32322;DHT22;61553;48.994;8.940;2022-08-19T02:17:26;19.60;99.90
32322;DHT22;61553;48.994;8.940;2022-08-19T02:19:54;19.60;99.90
32322;DHT22;61553;48.994;8.940;2022-08-19T02:22:19;19.50;99.90
32322;DHT22;61553;48.994;8.940;2022-08-19T02:24:45;19.50;99.90
32322;DHT22;61553;48.994;8.940;2022-08-19T02:27:13;19.50;99.90
32322;DHT22;61553;48.994;8.940;2022-08-19T02:29:39;19.50;99.90
32322;DHT22;61553;48.994;8.940;2022-08-19T02:32:05;19.50;99.90
32322;DHT22;61553;48.994;8.940;2022-08-19T02:34:31;19.50;99.90
32322;DHT22;61553;48.994;8.940;2022-08-19T02:36:56;19.40;99.90
32322;DHT22;61553;48.994;8.940;2022-08-19T02:39:22;19.40;99.90
32322;DHT22;61553;48.994;8.940;2022-08-19T02:41:47;19.40;99.90
32322;DHT22;61553;48.994;8.940;2022-08-19T02:44:14;19.30;99.90
32322;DHT22;61553;48.994;8.940;2022-08-19T02:46:40;19.30;99.90
32322;DHT22;61553;48.994;8.940;2022-08-19T02:49:07;19.30;99.90
32322;DHT22;61553;48.994;8.940;2022-08-19T02:51:35;19.20;99.90
32322;DHT22;61553;48.994;8.940;2022-08-19T02:54:02;19.20;99.90
32322;DHT22;61553;48.994;8.940;2022-08-19T02:56:28;19.20;99.90
32322;DHT22;61553;48.994;8.940;2022-08-19T02:58:55;19.10;99.90
32322;DHT22;61553;48.994;8.940;2022-08-19T03:01:30;19.10;99.90
32322;DHT22;61553;48.994;8.940;2022-08-19T03:03:58;19.10;99.90
32322;DHT22;61553;48.994;8.940;2022-08-19T03:06:24;19.10;99.90
32322;DHT22;61553;48.994;8.940;2022-08-19T03:08:50;19.10;99.90
32322;DHT22;61553;48.994;8.940;2022-08-19T03:11:25;19.10;99.90
32322;DHT22;61553;48.994;8.940;2022-08-19T03:13:51;19.10;99.90
32322;DHT22;61553;48.994;8.940;2022-08-19T03:16:20;19.10;99.90
32322;DHT22;61553;48.994;8.940;2022-08-19T03:18:47;19.10;99.90
32322;DHT22;61553;48.994;8.940;2022-08-19T03:21:22;19.10;99.90
32322;DHT22;61553;48.994;8.940;2022-08-19T03:23:49;19.10;99.90
32322;DHT22;61553;48.994;8.940;2022-08-19T03:26:16;19.00;99.90
32322;DHT22;61553;48.994;8.940;2022-08-19T03:28:42;19.00;99.90
32322;DHT22;61553;48.994;8.940;2022-08-19T03:31:11;19.00;99.90
32322;DHT22;61553;48.994;8.940;2022-08-19T03:33:38;19.00;99.90
32322;DHT22;61553;48.994;8.940;2022-08-19T03:36:13;19.00;99.90
32322;DHT22;61553;48.994;8.940;2022-08-19T03:38:43;18.90;99.90
32322;DHT22;61553;48.994;8.940;2022-08-19T03:41:13;18.90;99.90
32322;DHT22;61553;48.994;8.940;2022-08-19T03:43:40;18.90;99.90
32322;DHT22;61553;48.994;8.940;2022-08-19T03:46:10;18.90;99.90
32322;DHT22;61553;48.994;8.940;2022-08-19T03:48:37;18.90;99.90
32322;DHT22;61553;48.994;8.940;2022-08-19T03:51:04;18.90;99.90
32322;DHT22;61553;48.994;8.940;2022-08-19T03:53:31;18.90;99.90
32322;DHT22;61553;48.994;8.940;2022-08-19T03:55:57;18.90;99.90
32322;DHT22;61553;48.994;8.940;2022-08-19T03:58:26;18.90;99.90
32322;DHT22;61553;48.994;8.940;2022-08-19T04:00:53;18.80;99.90
32322;DHT22;61553;48.994;8.940;2022-08-19T04:03:19;18.80;99.90
32322;DHT22;61553;48.994;8.940;2022-08-19T04:05:45;18.70;99.90
32322;DHT22;61553;48.994;8.940;2022-08-19T04:08:12;18.70;99.90
32322;DHT22;61553;48.994;8.940;2022-08-19T04:10:38;18.70;99.90
32322;DHT22;61553;48.994;8.940;2022-08-19T04:13:04;18.70;99.90
32322;DHT22;61553;48.994;8.940;2022-08-19T04:15:31;18.70;99.90
32322;DHT22;61553;48.994;8.940;2022-08-19T04:18:01;18.70;99.90
32322;DHT22;61553;48.994;8.940;2022-08-19T04:20:27;18.70;99.90
32322;DHT22;61553;48.994;8.940;2022-08-19T04:22:52;18.70;99.90
32322;DHT22;61553;48.994;8.940;2022-08-19T04:25:18;18.70;99.90
32322;DHT22;61553;48.994;8.940;2022-08-19T04:27:44;18.80;99.90
32322;DHT22;61553;48.994;8.940;2022-08-19T04:30:12;18.80;99.90
32322;DHT22;61553;48.994;8.940;2022-08-19T04:32:38;18.80;99.90
32322;DHT22;61553;48.994;8.940;2022-08-19T04:35:04;18.80;99.90
32322;DHT22;61553;48.994;8.940;2022-08-19T04:37:31;18.80;99.90
32322;DHT22;61553;48.994;8.940;2022-08-19T04:39:59;18.80;99.90
32322;DHT22;61553;48.994;8.940;2022-08-19T04:42:43;18.90;99.90
32322;DHT22;61553;48.994;8.940;2022-08-19T04:45:13;18.80;99.90
32322;DHT22;61553;48.994;8.940;2022-08-19T04:47:41;18.80;99.90
32322;DHT22;61553;48.994;8.940;2022-08-19T04:50:08;18.90;99.90
32322;DHT22;61553;48.994;8.940;2022-08-19T04:52:37;18.90;99.90
32322;DHT22;61553;48.994;8.940;2022-08-19T04:55:08;18.90;99.90
32322;DHT22;61553;48.994;8.940;2022-08-19T04:57:34;18.90;99.90
32322;DHT22;61553;48.994;8.940;2022-08-19T05:00:00;19.00;99.90
32322;DHT22;61553;48.994;8.940;2022-08-19T05:02:26;19.00;99.90
32322;DHT22;61553;48.994;8.940;2022-08-19T05:04:58;19.10;99.90
32322;DHT22;61553;48.994;8.940;2022-08-19T05:07:26;19.10;99.90
32322;DHT22;61553;48.994;8.940;2022-08-19T05:09:52;19.10;99.90
32322;DHT22;61553;48.994;8.940;2022-08-19T05:12:18;19.10;99.90
32322;DHT22;61553;48.994;8.940;2022-08-19T05:14:44;19.10;99.90
32322;DHT22;61553;48.994;8.940;2022-08-19T05:17:12;19.10;99.90
32322;DHT22;61553;48.994;8.940;2022-08-19T05:19:38;19.10;99.90
32322;DHT22;61553;48.994;8.940;2022-08-19T05:22:26;19.20;99.90
32322;DHT22;61553;48.994;8.940;2022-08-19T05:25:03;19.20;99.90
32322;DHT22;61553;48.994;8.940;2022-08-19T05:27:29;19.20;99.90
32322;DHT22;61553;48.994;8.940;2022-08-19T05:29:54;19.20;99.90
32322;DHT22;61553;48.994;8.940;2022-08-19T05:32:20;19.20;99.90
32322;DHT22;61553;48.994;8.940;2022-08-19T05:34:46;19.30;99.90
32322;DHT22;61553;48.994;8.940;2022-08-19T05:37:12;19.30;99.90
32322;DHT22;61553;48.994;8.940;2022-08-19T05:39:38;19.30;99.90
32322;DHT22;61553;48.994;8.940;2022-08-19T05:42:09;19.40;99.90
32322;DHT22;61553;48.994;8.940;2022-08-19T05:44:38;19.40;99.90
32322;DHT22;61553;48.994;8.940;2022-08-19T05:47:06;19.40;99.90
32322;DHT22;61553;48.994;8.940;2022-08-19T05:49:34;19.40;99.90
32322;DHT22;61553;48.994;8.940;2022-08-19T05:52:03;19.50;99.90
32322;DHT22;61553;48.994;8.940;2022-08-19T05:54:29;19.50;99.90
32322;DHT22;61553;48.994;8.940;2022-08-19T05:56:56;19.50;99.90
32322;DHT22;61553;48.994;8.940;2022-08-19T05:59:22;19.50;99.90
32322;DHT22;61553;48.994;8.940;2022-08-19T06:01:50;19.50;99.90
32322;DHT22;61553;48.994;8.940;2022-08-19T06:04:17;19.50;99.90
32322;DHT22;61553;48.994;8.940;2022-08-19T06:06:45;19.50;99.90
32322;DHT22;61553;48.994;8.940;2022-08-19T06:09:12;19.60;99.90
32322;DHT22;61553;48.994;8.940;2022-08-19T06:11:42;19.60;99.90
32322;DHT22;61553;48.994;8.940;2022-08-19T06:14:18;19.60;99.90
32322;DHT22;61553;48.994;8.940;2022-08-19T06:16:45;19.60;99.90
32322;DHT22;61553;48.994;8.940;2022-08-19T06:19:13;19.60;99.90
32322;DHT22;61553;48.994;8.940;2022-08-19T06:21:42;19.70;99.90
32322;DHT22;61553;48.994;8.940;2022-08-19T06:24:13;19.70;99.90
32322;DHT22;61553;48.994;8.940;2022-08-19T06:26:41;19.80;99.90
32322;DHT22;61553;48.994;8.940;2022-08-19T06:29:08;19.80;99.90
32322;DHT22;61553;48.994;8.940;2022-08-19T06:31:35;19.80;99.90
32322;DHT22;61553;48.994;8.940;2022-08-19T06:34:04;19.90;99.90
32322;DHT22;61553;48.994;8.940;2022-08-19T06:36:35;19.90;99.90
32322;DHT22;61553;48.994;8.940;2022-08-19T06:39:07;19.90;99.90
32322;DHT22;61553;48.994;8.940;2022-08-19T06:41:38;19.90;99.90
32322;DHT22;61553;48.994;8.940;2022-08-19T06:44:05;19.90;99.90
32322;DHT22;61553;48.994;8.940;2022-08-19T06:46:30;20.00;99.90
32322;DHT22;61553;48.994;8.940;2022-08-19T06:48:57;20.00;99.90
32322;DHT22;61553;48.994;8.940;2022-08-19T06:51:23;20.00;99.90
32322;DHT22;61553;48.994;8.940;2022-08-19T06:53:51;20.00;99.90
32322;DHT22;61553;48.994;8.940;2022-08-19T06:56:20;20.10;99.90
32322;DHT22;61553;48.994;8.940;2022-08-19T06:58:48;20.10;99.90
32322;DHT22;61553;48.994;8.940;2022-08-19T07:01:17;20.10;99.90
32322;DHT22;61553;48.994;8.940;2022-08-19T07:03:42;20.20;99.90
32322;DHT22;61553;48.994;8.940;2022-08-19T07:06:12;20.20;99.90
32322;DHT22;61553;48.994;8.940;2022-08-19T07:08:40;20.30;99.90
32322;DHT22;61553;48.994;8.940;2022-08-19T07:11:11;20.30;99.90
32322;DHT22;61553;48.994;8.940;2022-08-19T07:13:39;20.30;99.90
32322;DHT22;61553;48.994;8.940;2022-08-19T07:16:09;20.30;99.90
32322;DHT22;61553;48.994;8.940;2022-08-19T07:18:35;20.30;99.90
32322;DHT22;61553;48.994;8.940;2022-08-19T07:21:12;20.40;99.90
32322;DHT22;61553;48.994;8.940;2022-08-19T07:23:38;20.40;99.90
32322;DHT22;61553;48.994;8.940;2022-08-19T07:26:12;20.50;99.90
32322;DHT22;61553;48.994;8.940;2022-08-19T07:28:38;20.60;99.90
32322;DHT22;61553;48.994;8.940;2022-08-19T07:31:09;20.80;99.90
32322;DHT22;61553;48.994;8.940;2022-08-19T07:33:35;20.90;99.90
32322;DHT22;61553;48.994;8.940;2022-08-19T07:36:04;21.00;99.90
32322;DHT22;61553;48.994;8.940;2022-08-19T07:38:32;21.20;99.90
32322;DHT22;61553;48.994;8.940;2022-08-19T07:40:58;21.30;99.90
32322;DHT22;61553;48.994;8.940;2022-08-19T07:43:23;21.40;99.90
32322;DHT22;61553;48.994;8.940;2022-08-19T07:45:54;21.60;99.90
32322;DHT22;61553;48.994;8.940;2022-08-19T07:48:25;21.60;99.90
32322;DHT22;61553;48.994;8.940;2022-08-19T07:50:54;21.70;99.90
32322;DHT22;61553;48.994;8.940;2022-08-19T07:53:24;21.90;99.90
32322;DHT22;61553;48.994;8.940;2022-08-19T07:55:50;21.90;99.90
32322;DHT22;61553;48.994;8.940;2022-08-19T07:58:18;22.00;99.90
32322;DHT22;61553;48.994;8.940;2022-08-19T08:00:46;22.20;99.90
32322;DHT22;61553;48.994;8.940;2022-08-19T08:03:14;22.50;99.90
32322;DHT22;61553;48.994;8.940;2022-08-19T08:05:40;22.80;99.90
32322;DHT22;61553;48.994;8.940;2022-08-19T08:08:25;23.10;99.90
32322;DHT22;61553;48.994;8.940;2022-08-19T08:11:09;23.30;99.90
32322;DHT22;61553;48.994;8.940;2022-08-19T08:13:36;23.30;99.90
32322;DHT22;61553;48.994;8.940;2022-08-19T08:16:02;23.30;99.90
32322;DHT22;61553;48.994;8.940;2022-08-19T08:18:28;23.30;99.90
32322;DHT22;61553;48.994;8.940;2022-08-19T08:20:55;23.20;99.90
32322;DHT22;61553;48.994;8.940;2022-08-19T08:23:22;23.00;99.90
32322;DHT22;61553;48.994;8.940;2022-08-19T08:25:48;22.90;99.90
32322;DHT22;61553;48.994;8.940;2022-08-19T08:28:15;22.90;99.90
32322;DHT22;61553;48.994;8.940;2022-08-19T08:30:41;23.00;99.90
32322;DHT22;61553;48.994;8.940;2022-08-19T08:33:08;23.20;99.90
32322;DHT22;61553;48.994;8.940;2022-08-19T08:35:35;23.30;99.90
32322;DHT22;61553;48.994;8.940;2022-08-19T08:38:01;23.40;99.90
32322;DHT22;61553;48.994;8.940;2022-08-19T08:43:33;23.40;99.90
32322;DHT22;61553;48.994;8.940;2022-08-19T08:48:46;23.20;99.90
32322;DHT22;61553;48.994;8.940;2022-08-19T08:51:22;23.20;99.90
32322;DHT22;61553;48.994;8.940;2022-08-19T08:53:51;23.20;99.90
32322;DHT22;61553;48.994;8.940;2022-08-19T08:56:17;23.20;99.90
32322;DHT22;61553;48.994;8.940;2022-08-19T08:58:50;23.30;99.90
32322;DHT22;61553;48.994;8.940;2022-08-19T09:01:17;23.40;99.90
32322;DHT22;61553;48.994;8.940;2022-08-19T09:03:43;23.50;99.90
32322;DHT22;61553;48.994;8.940;2022-08-19T09:08:47;23.70;99.90
32322;DHT22;61553;48.994;8.940;2022-08-19T09:11:44;23.80;99.90
32322;DHT22;61553;48.994;8.940;2022-08-19T09:17:27;23.90;99.90
32322;DHT22;61553;48.994;8.940;2022-08-19T09:20:01;23.90;99.90
32322;DHT22;61553;48.994;8.940;2022-08-19T09:22:31;24.00;99.90
32322;DHT22;61553;48.994;8.940;2022-08-19T09:24:57;24.10;99.90
32322;DHT22;61553;48.994;8.940;2022-08-19T09:27:24;24.30;99.90
32322;DHT22;61553;48.994;8.940;2022-08-19T09:29:51;24.30;99.90
32322;DHT22;61553;48.994;8.940;2022-08-19T09:32:17;24.30;99.90
32322;DHT22;61553;48.994;8.940;2022-08-19T09:34:43;24.40;99.90
32322;DHT22;61553;48.994;8.940;2022-08-19T09:37:10;24.20;99.90
32322;DHT22;61553;48.994;8.940;2022-08-19T09:39:35;24.30;99.90
32322;DHT22;61553;48.994;8.940;2022-08-19T09:42:02;24.30;99.90
32322;DHT22;61553;48.994;8.940;2022-08-19T09:44:29;24.40;99.90
32322;DHT22;61553;48.994;8.940;2022-08-19T09:46:54;24.50;99.90
32322;DHT22;61553;48.994;8.940;2022-08-19T09:49:21;24.50;99.90
32322;DHT22;61553;48.994;8.940;2022-08-19T09:51:53;24.50;99.90
32322;DHT22;61553;48.994;8.940;2022-08-19T09:54:21;24.70;99.90
32322;DHT22;61553;48.994;8.940;2022-08-19T09:56:48;24.90;99.90
32322;DHT22;61553;48.994;8.940;2022-08-19T09:59:14;25.20;99.90
32322;DHT22;61553;48.994;8.940;2022-08-19T10:01:39;25.60;99.90
32322;DHT22;61553;48.994;8.940;2022-08-19T10:04:05;26.00;99.90
32322;DHT22;61553;48.994;8.940;2022-08-19T10:06:35;26.50;99.80
32322;DHT22;61553;48.994;8.940;2022-08-19T10:09:02;27.40;98.10
32322;DHT22;61553;48.994;8.940;2022-08-19T10:11:31;28.00;96.40
32322;DHT22;61553;48.994;8.940;2022-08-19T10:13:57;28.90;94.50
32322;DHT22;61553;48.994;8.940;2022-08-19T10:16:24;29.40;92.10
32322;DHT22;61553;48.994;8.940;2022-08-19T10:18:51;29.80;90.10
32322;DHT22;61553;48.994;8.940;2022-08-19T10:21:27;30.00;87.40
32322;DHT22;61553;48.994;8.940;2022-08-19T10:23:56;30.00;85.20
32322;DHT22;61553;48.994;8.940;2022-08-19T10:26:25;30.20;83.80
32322;DHT22;61553;48.994;8.940;2022-08-19T10:28:52;30.40;80.30
32322;DHT22;61553;48.994;8.940;2022-08-19T10:31:25;30.50;77.60
32322;DHT22;61553;48.994;8.940;2022-08-19T10:33:52;30.60;76.80
32322;DHT22;61553;48.994;8.940;2022-08-19T10:36:27;30.40;76.70
32322;DHT22;61553;48.994;8.940;2022-08-19T10:38:55;30.50;75.40
32322;DHT22;61553;48.994;8.940;2022-08-19T10:41:27;30.90;74.20
32322;DHT22;61553;48.994;8.940;2022-08-19T10:43:55;30.90;72.90
32322;DHT22;61553;48.994;8.940;2022-08-19T10:46:23;30.90;71.40
32322;DHT22;61553;48.994;8.940;2022-08-19T10:48:49;30.90;70.60
32322;DHT22;61553;48.994;8.940;2022-08-19T10:51:16;30.70;71.40
32322;DHT22;61553;48.994;8.940;2022-08-19T10:54:01;30.50;70.90
32322;DHT22;61553;48.994;8.940;2022-08-19T10:56:27;30.40;70.50
32322;DHT22;61553;48.994;8.940;2022-08-19T10:59:12;30.60;69.80
32322;DHT22;61553;48.994;8.940;2022-08-19T11:01:40;30.80;69.50
32322;DHT22;61553;48.994;8.940;2022-08-19T11:04:06;30.70;69.50
32322;DHT22;61553;48.994;8.940;2022-08-19T11:06:35;30.60;69.60
32322;DHT22;61553;48.994;8.940;2022-08-19T11:09:02;30.50;69.50
32322;DHT22;61553;48.994;8.940;2022-08-19T11:11:28;30.20;69.20
32322;DHT22;61553;48.994;8.940;2022-08-19T11:13:54;29.90;69.60
32322;DHT22;61553;48.994;8.940;2022-08-19T11:16:23;29.40;69.70
32322;DHT22;61553;48.994;8.940;2022-08-19T11:18:51;29.00;70.40
32322;DHT22;61553;48.994;8.940;2022-08-19T11:21:20;28.70;71.00
32322;DHT22;61553;48.994;8.940;2022-08-19T11:23:49;28.70;71.30
32322;DHT22;61553;48.994;8.940;2022-08-19T11:26:16;28.70;71.20
32322;DHT22;61553;48.994;8.940;2022-08-19T11:28:42;28.70;71.20
32322;DHT22;61553;48.994;8.940;2022-08-19T11:31:17;28.70;70.80
32322;DHT22;61553;48.994;8.940;2022-08-19T11:33:43;28.80;70.70
32322;DHT22;61553;48.994;8.940;2022-08-19T11:36:09;28.90;70.10
32322;DHT22;61553;48.994;8.940;2022-08-19T11:38:36;28.90;70.00
32322;DHT22;61553;48.994;8.940;2022-08-19T11:41:05;28.80;69.80
32322;DHT22;61553;48.994;8.940;2022-08-19T11:43:32;28.80;70.10
32322;DHT22;61553;48.994;8.940;2022-08-19T11:45:59;28.60;70.00
32322;DHT22;61553;48.994;8.940;2022-08-19T11:48:25;28.20;69.60
32322;DHT22;61553;48.994;8.940;2022-08-19T11:50:54;27.80;71.00
32322;DHT22;61553;48.994;8.940;2022-08-19T11:53:22;27.60;72.20
32322;DHT22;61553;48.994;8.940;2022-08-19T11:55:49;27.70;71.70
32322;DHT22;61553;48.994;8.940;2022-08-19T11:58:16;27.80;70.90
32322;DHT22;61553;48.994;8.940;2022-08-19T12:00:43;27.90;71.50
32322;DHT22;61553;48.994;8.940;2022-08-19T12:03:11;28.00;69.60
32322;DHT22;61553;48.994;8.940;2022-08-19T12:05:38;28.20;68.70
32322;DHT22;61553;48.994;8.940;2022-08-19T12:08:06;28.20;68.60
32322;DHT22;61553;48.994;8.940;2022-08-19T12:10:33;28.50;69.20
32322;DHT22;61553;48.994;8.940;2022-08-19T12:12:58;28.70;68.70
32322;DHT22;61553;48.994;8.940;2022-08-19T12:15:24;28.60;68.90
32322;DHT22;61553;48.994;8.940;2022-08-19T12:17:50;28.60;69.40
32322;DHT22;61553;48.994;8.940;2022-08-19T12:20:16;28.70;69.20
32322;DHT22;61553;48.994;8.940;2022-08-19T12:22:42;28.70;68.80
32322;DHT22;61553;48.994;8.940;2022-08-19T12:25:11;28.50;69.00
32322;DHT22;61553;48.994;8.940;2022-08-19T12:27:38;28.50;68.40
32322;DHT22;61553;48.994;8.940;2022-08-19T12:30:05;28.70;68.40
32322;DHT22;61553;48.994;8.940;2022-08-19T12:32:32;29.00;67.90
32322;DHT22;61553;48.994;8.940;2022-08-19T12:34:57;29.10;68.40
32322;DHT22;61553;48.994;8.940;2022-08-19T12:37:23;29.20;66.90
32322;DHT22;61553;48.994;8.940;2022-08-19T12:39:49;29.30;65.60
32322;DHT22;61553;48.994;8.940;2022-08-19T12:42:14;29.40;64.80
32322;DHT22;61553;48.994;8.940;2022-08-19T12:44:42;29.40;65.50
32322;DHT22;61553;48.994;8.940;2022-08-19T12:47:09;29.60;66.00
32322;DHT22;61553;48.994;8.940;2022-08-19T12:49:35;29.70;66.10
32322;DHT22;61553;48.994;8.940;2022-08-19T12:52:04;29.80;66.40
32322;DHT22;61553;48.994;8.940;2022-08-19T12:54:30;30.00;65.90
32322;DHT22;61553;48.994;8.940;2022-08-19T12:56:56;29.80;65.50
32322;DHT22;61553;48.994;8.940;2022-08-19T12:59:22;30.00;65.30
32322;DHT22;61553;48.994;8.940;2022-08-19T13:01:48;29.90;63.80
32322;DHT22;61553;48.994;8.940;2022-08-19T13:04:14;30.00;63.60
32322;DHT22;61553;48.994;8.940;2022-08-19T13:06:40;30.10;63.80
32322;DHT22;61553;48.994;8.940;2022-08-19T13:09:06;30.20;62.90
32322;DHT22;61553;48.994;8.940;2022-08-19T13:11:32;30.10;63.70
32322;DHT22;61553;48.994;8.940;2022-08-19T13:13:59;30.10;62.80
32322;DHT22;61553;48.994;8.940;2022-08-19T13:16:25;29.90;63.20
32322;DHT22;61553;48.994;8.940;2022-08-19T13:18:54;29.70;64.20
32322;DHT22;61553;48.994;8.940;2022-08-19T13:21:24;29.70;63.60
32322;DHT22;61553;48.994;8.940;2022-08-19T13:23:51;29.60;63.90
32322;DHT22;61553;48.994;8.940;2022-08-19T13:26:17;29.50;63.70
32322;DHT22;61553;48.994;8.940;2022-08-19T13:28:44;29.30;63.80
32322;DHT22;61553;48.994;8.940;2022-08-19T13:31:32;29.20;64.00
32322;DHT22;61553;48.994;8.940;2022-08-19T13:34:19;29.00;64.60
32322;DHT22;61553;48.994;8.940;2022-08-19T13:36:46;28.90;64.50
32322;DHT22;61553;48.994;8.940;2022-08-19T13:39:12;28.80;64.70
32322;DHT22;61553;48.994;8.940;2022-08-19T13:41:44;28.80;65.10
32322;DHT22;61553;48.994;8.940;2022-08-19T13:44:14;28.80;64.10
32322;DHT22;61553;48.994;8.940;2022-08-19T13:46:41;29.00;63.00
32322;DHT22;61553;48.994;8.940;2022-08-19T13:49:13;28.90;62.60
32322;DHT22;61553;48.994;8.940;2022-08-19T13:51:40;29.00;62.10
32322;DHT22;61553;48.994;8.940;2022-08-19T13:54:07;29.10;62.10
32322;DHT22;61553;48.994;8.940;2022-08-19T13:56:34;29.10;61.80
32322;DHT22;61553;48.994;8.940;2022-08-19T13:59:01;29.10;61.90
32322;DHT22;61553;48.994;8.940;2022-08-19T14:01:27;29.10;61.30
32322;DHT22;61553;48.994;8.940;2022-08-19T14:03:53;29.10;61.90
32322;DHT22;61553;48.994;8.940;2022-08-19T14:06:19;29.10;61.30
32322;DHT22;61553;48.994;8.940;2022-08-19T14:08:45;29.10;61.70
32322;DHT22;61553;48.994;8.940;2022-08-19T14:11:11;29.10;61.60
32322;DHT22;61553;48.994;8.940;2022-08-19T14:13:36;29.20;61.50
32322;DHT22;61553;48.994;8.940;2022-08-19T14:16:07;29.30;60.80
32322;DHT22;61553;48.994;8.940;2022-08-19T14:18:33;29.30;61.00
32322;DHT22;61553;48.994;8.940;2022-08-19T14:20:58;29.40;60.40
32322;DHT22;61553;48.994;8.940;2022-08-19T14:23:24;29.60;59.90
32322;DHT22;61553;48.994;8.940;2022-08-19T14:25:50;29.70;60.10
32322;DHT22;61553;48.994;8.940;2022-08-19T14:28:15;29.80;59.40
32322;DHT22;61553;48.994;8.940;2022-08-19T14:30:42;29.80;58.90
32322;DHT22;61553;48.994;8.940;2022-08-19T14:33:09;30.10;58.00
32322;DHT22;61553;48.994;8.940;2022-08-19T14:35:35;30.30;56.00
32322;DHT22;61553;48.994;8.940;2022-08-19T14:38:05;30.30;55.20
32322;DHT22;61553;48.994;8.940;2022-08-19T14:40:31;30.20;54.70
32322;DHT22;61553;48.994;8.940;2022-08-19T14:43:00;30.10;54.00
32322;DHT22;61553;48.994;8.940;2022-08-19T14:45:31;30.10;54.40
32322;DHT22;61553;48.994;8.940;2022-08-19T14:47:58;30.10;54.20
32322;DHT22;61553;48.994;8.940;2022-08-19T14:50:25;29.90;53.70
32322;DHT22;61553;48.994;8.940;2022-08-19T14:53:01;29.80;53.70
32322;DHT22;61553;48.994;8.940;2022-08-19T14:55:29;29.90;52.90
32322;DHT22;61553;48.994;8.940;2022-08-19T14:57:55;29.80;52.40
32322;DHT22;61553;48.994;8.940;2022-08-19T15:00:21;29.70;52.20
32322;DHT22;61553;48.994;8.940;2022-08-19T15:02:48;29.60;52.80
32322;DHT22;61553;48.994;8.940;2022-08-19T15:05:14;29.60;53.00
32322;DHT22;61553;48.994;8.940;2022-08-19T15:07:40;29.70;53.10
32322;DHT22;61553;48.994;8.940;2022-08-19T15:10:08;29.60;52.30
32322;DHT22;61553;48.994;8.940;2022-08-19T15:12:35;29.40;52.40
32322;DHT22;61553;48.994;8.940;2022-08-19T15:15:02;29.40;52.70
32322;DHT22;61553;48.994;8.940;2022-08-19T15:17:28;29.20;52.70
32322;DHT22;61553;48.994;8.940;2022-08-19T15:19:55;29.10;52.80
32322;DHT22;61553;48.994;8.940;2022-08-19T15:22:21;28.90;52.90
32322;DHT22;61553;48.994;8.940;2022-08-19T15:24:47;28.80;53.30
32322;DHT22;61553;48.994;8.940;2022-08-19T15:27:13;28.70;53.40
32322;DHT22;61553;48.994;8.940;2022-08-19T15:29:39;28.50;53.90
32322;DHT22;61553;48.994;8.940;2022-08-19T15:32:07;28.40;53.80
32322;DHT22;61553;48.994;8.940;2022-08-19T15:34:33;28.30;54.20
32322;DHT22;61553;48.994;8.940;2022-08-19T15:36:59;28.20;54.70
32322;DHT22;61553;48.994;8.940;2022-08-19T15:39:25;28.10;54.50
32322;DHT22;61553;48.994;8.940;2022-08-19T15:41:51;27.90;54.90
32322;DHT22;61553;48.994;8.940;2022-08-19T15:44:18;27.80;55.20
32322;DHT22;61553;48.994;8.940;2022-08-19T15:46:47;27.70;55.70